Time;durP1;ratioP1;P1;durP2;ratioP2;P2;SDS_P1;SDS_P2;PMS_P1;PMS_P2;Temp;Humidity;BMP_temperature;BMP_pressure;BME280_temperature;BME280_humidity;BME280_pressure;Samples;Min_cycle;Max_cycle;Signal;HPM_P1;HPM_P2
2023/09/22 00:01:30;;;;;;;13.50;10.60;;;;;;;15.61;69.29;100704.85;108070;1254;71455;-69
2023/09/22 00:03:59;;;;;;;12.10;10.10;;;;;;;15.56;69.50;100708.84;107991;1257;71980;-68
2023/09/22 00:06:27;;;;;;;11.50;10.30;;;;;;;15.54;69.87;100711.73;107922;1256;61924;-68
2023/09/22 00:08:54;;;;;;;16.80;11.50;;;;;;;15.54;69.95;100714.73;108026;1256;60299;-68
2023/09/22 00:11:22;;;;;;;12.40;10.60;;;;;;;15.54;69.98;100714.42;108014;1256;73846;-69
2023/09/22 00:13:49;;;;;;;15.20;10.60;;;;;;;15.53;70.21;100713.57;107917;1257;72491;-68
2023/09/22 00:16:17;;;;;;;13.30;10.30;;;;;;;15.55;70.33;100719.18;107952;1257;71381;-68
2023/09/22 00:18:45;;;;;;;11.50;10.30;;;;;;;15.57;70.40;100720.95;107869;1255;61004;-68
2023/09/22 00:21:14;;;;;;;15.20;10.70;;;;;;;15.61;70.35;100726.12;107944;1257;60282;-69
2023/09/22 00:23:41;;;;;;;17.00;11.20;;;;;;;15.58;70.30;100726.32;107901;1257;72274;-68
2023/09/22 00:26:09;;;;;;;13.00;10.60;;;;;;;15.55;70.23;100726.52;108142;1254;71644;-68
2023/09/22 00:28:41;;;;;;;15.50;10.50;;;;;;;15.56;70.04;100728.61;107998;1254;72532;-68
2023/09/22 00:31:08;;;;;;;12.80;10.20;;;;;;;15.57;70.08;100722.77;107840;1254;60241;-70
2023/09/22 00:33:36;;;;;;;13.00;10.20;;;;;;;15.55;69.97;100723.29;107861;1254;59006;-69
2023/09/22 00:36:04;;;;;;;12.50;10.30;;;;;;;15.49;70.04;100722.21;107831;1257;72603;-69
2023/09/22 00:38:32;;;;;;;12.10;10.10;;;;;;;15.44;70.19;100719.48;107785;1257;72816;-67
2023/09/22 00:40:59;;;;;;;13.30;10.30;;;;;;;15.41;70.35;100719.72;107938;1260;72705;-69
2023/09/22 00:43:29;;;;;;;12.60;10.60;;;;;;;15.39;70.37;100718.71;108023;1254;60673;-69
2023/09/22 00:45:56;;;;;;;12.90;10.70;;;;;;;15.38;70.57;100720.73;108062;1254;60578;-68
2023/09/22 00:48:30;;;;;;;11.50;9.70;;;;;;;15.35;70.74;100724.18;107837;1254;71660;-68
2023/09/22 00:50:58;;;;;;;11.80;10.20;;;;;;;15.33;70.53;100723.02;107710;1253;71890;-68
2023/09/22 00:53:25;;;;;;;12.50;10.80;;;;;;;15.33;70.48;100725.29;107763;1254;72372;-67
2023/09/22 00:55:53;;;;;;;11.80;10.10;;;;;;;15.35;70.34;100724.85;107661;1254;60376;-68
2023/09/22 00:58:20;;;;;;;12.00;9.70;;;;;;;15.33;70.15;100724.98;107897;1254;60348;-67
2023/09/22 01:00:49;;;;;;;11.80;10.50;;;;;;;15.27;70.14;100726.20;107998;1254;73909;-68
2023/09/22 01:03:17;;;;;;;12.20;10.30;;;;;;;15.22;70.18;100726.02;107950;1254;71676;-67
2023/09/22 01:05:45;;;;;;;12.70;10.20;;;;;;;15.21;70.09;100728.14;107854;1259;72823;-68
2023/09/22 01:08:13;;;;;;;12.50;10.30;;;;;;;15.22;69.87;100729.04;107953;1254;60465;-68
2023/09/22 01:10:44;;;;;;;12.10;10.10;;;;;;;15.24;69.61;100726.12;107871;1254;62472;-67
2023/09/22 01:13:13;;;;;;;15.10;10.50;;;;;;;15.25;69.53;100724.02;108004;1254;72809;-67
2023/09/22 01:15:41;;;;;;;11.80;9.70;;;;;;;15.25;69.58;100723.16;107980;1254;74291;-69
2023/09/22 01:18:10;;;;;;;12.60;10.00;;;;;;;15.25;69.59;100721.77;108045;1255;72866;-68
2023/09/22 01:20:39;;;;;;;13.50;9.60;;;;;;;15.34;69.44;100722.54;108126;1254;61703;-68
2023/09/22 01:23:08;;;;;;;12.50;10.20;;;;;;;15.36;69.26;100723.05;107972;1254;60222;-68
2023/09/22 01:25:36;;;;;;;16.60;10.40;;;;;;;15.37;69.08;100725.63;108015;1254;73291;-68
2023/09/22 01:28:09;;;;;;;11.40;10.20;;;;;;;15.41;68.84;100725.57;108008;1254;73721;-68
2023/09/22 01:30:41;;;;;;;11.50;9.80;;;;;;;15.45;68.66;100723.70;107990;1254;72783;-68
2023/09/22 01:33:09;;;;;;;15.00;10.30;;;;;;;15.48;68.61;100722.50;107834;1257;62548;-68
2023/09/22 01:35:37;;;;;;;16.60;10.20;;;;;;;15.45;68.60;100722.04;107930;1254;60415;-68
2023/09/22 01:38:16;;;;;;;12.20;10.00;;;;;;;15.43;68.60;100722.00;107868;1254;73889;-68
2023/09/22 01:40:44;;;;;;;13.30;9.70;;;;;;;15.43;68.41;100720.98;107957;1254;71968;-68
2023/09/22 01:43:12;;;;;;;10.90;9.50;;;;;;;15.43;68.46;100720.55;107745;1254;71185;-68
2023/09/22 01:45:40;;;;;;;12.50;10.00;;;;;;;15.42;68.44;100719.27;107838;1254;62354;-68
2023/09/22 01:48:08;;;;;;;11.00;9.60;;;;;;;15.43;68.40;100728.73;108065;1254;61050;-68
2023/09/22 01:50:40;;;;;;;12.90;9.70;;;;;;;15.46;68.11;100720.36;107681;1254;72632;-68
2023/09/22 01:53:11;;;;;;;;;;;;;;;15.48;67.90;100718.94;108042;1254;71458;-67
2023/09/22 01:55:39;;;;;;;12.40;9.90;;;;;;;15.51;67.85;100715.20;107804;1254;72813;-68
2023/09/22 01:58:11;;;;;;;12.30;9.60;;;;;;;15.52;67.64;100713.36;107959;1255;60450;-68
2023/09/22 02:00:39;;;;;;;16.00;9.50;;;;;;;15.54;67.51;100715.42;107838;1254;60026;-68
2023/09/22 02:03:07;;;;;;;14.70;9.40;;;;;;;15.56;67.21;100715.30;107859;1254;72902;-68
2023/09/22 02:05:35;;;;;;;12.40;9.30;;;;;;;15.57;67.20;100709.91;107860;1254;71619;-68
2023/09/22 02:08:03;;;;;;;11.20;9.70;;;;;;;15.57;67.22;100709.92;107967;1254;71396;-68
2023/09/22 02:10:30;;;;;;;11.40;9.70;;;;;;;15.57;67.17;100717.33;107935;1254;61701;-68
2023/09/22 02:12:58;;;;;;;13.20;9.80;;;;;;;15.58;67.18;100714.11;107841;1254;60292;-68
2023/09/22 02:15:25;;;;;;;13.40;10.00;;;;;;;15.59;67.12;100714.77;107888;1254;72984;-68
2023/09/22 02:17:53;;;;;;;11.30;9.10;;;;;;;15.60;67.11;100711.98;107889;1254;72837;-68
2023/09/22 02:20:24;;;;;;;12.00;9.60;;;;;;;15.60;67.21;100710.52;107932;1254;72797;-67
2023/09/22 02:22:55;;;;;;;12.80;9.60;;;;;;;15.62;67.05;100710.91;107933;1254;60413;-67
2023/09/22 02:25:23;;;;;;;11.90;9.20;;;;;;;15.66;66.97;100710.02;107976;1257;60536;-67
2023/09/22 02:27:53;;;;;;;11.10;9.40;;;;;;;16.02;66.04;100706.00;107707;1256;73952;-67
2023/09/22 02:30:22;;;;;;;13.30;9.50;;;;;;;16.09;65.47;100705.42;107938;1257;71432;-69
2023/09/22 02:32:54;;;;;;;11.40;8.60;;;;;;;16.06;65.26;100706.98;107821;1256;72722;-68
2023/09/22 02:35:22;;;;;;;11.50;9.20;;;;;;;15.98;65.39;100702.67;107964;1254;60452;-68
2023/09/22 02:37:50;;;;;;;13.20;9.20;;;;;;;15.94;65.42;100699.96;108052;1254;60386;-68
2023/09/22 02:40:18;;;;;;;12.10;9.20;;;;;;;15.94;65.33;100701.21;108006;1259;73964;-68
2023/09/22 02:42:45;;;;;;;13.80;9.50;;;;;;;15.95;65.30;100703.18;107829;1254;72739;-68
2023/09/22 02:45:15;;;;;;;11.90;8.80;;;;;;;15.96;65.21;100704.66;107828;1254;72726;-69
2023/09/22 02:47:43;;;;;;;10.10;8.90;;;;;;;16.00;65.08;100703.71;108017;1257;61781;-69
2023/09/22 02:50:15;;;;;;;12.80;8.70;;;;;;;16.02;64.97;100704.60;107898;1260;60327;-69
2023/09/22 02:52:42;;;;;;;11.80;9.80;;;;;;;16.03;64.84;100701.37;107729;1262;75952;-69
2023/09/22 02:55:11;;;;;;;13.90;8.80;;;;;;;16.00;64.87;100704.42;107866;1254;71472;-69
2023/09/22 02:57:42;;;;;;;10.90;9.20;;;;;;;15.98;64.87;100708.05;107787;1254;70740;-68
2023/09/22 03:00:20;;;;;;;12.80;8.70;;;;;;;15.92;64.69;100706.93;107985;1254;61715;-69
2023/09/22 03:02:50;;;;;;;11.70;8.80;;;;;;;15.85;64.63;100708.86;108006;1254;62302;-68
2023/09/22 03:05:18;;;;;;;11.80;9.50;;;;;;;15.82;64.70;100714.23;107818;1254;74002;-69
2023/09/22 03:07:52;;;;;;;10.40;8.80;;;;;;;15.80;64.82;100711.19;108053;1254;70863;-69
2023/09/22 03:10:20;;;;;;;11.60;9.30;;;;;;;15.79;64.74;100713.88;107968;1258;71502;-68
2023/09/22 03:12:52;;;;;;;11.70;9.30;;;;;;;15.77;64.92;100719.96;107807;1254;61924;-68
2023/09/22 03:15:21;;;;;;;10.70;8.90;;;;;;;15.75;64.83;100718.08;107863;1254;60444;-68
2023/09/22 03:17:49;;;;;;;11.30;9.10;;;;;;;15.74;64.71;100720.46;107913;1254;73902;-68
2023/09/22 03:20:17;;;;;;;12.20;8.90;;;;;;;15.36;65.39;100729.77;108008;1254;73083;-69
2023/09/22 03:22:45;;;;;;;11.50;9.10;;;;;;;15.19;65.81;100727.61;107966;1257;75267;-68
2023/09/22 03:25:14;;;;;;;11.30;9.00;;;;;;;15.13;65.99;100725.73;108088;1257;60460;-68
2023/09/22 03:27:43;;;;;;;12.90;9.60;;;;;;;15.08;66.07;100725.63;107990;1254;60274;-68
2023/09/22 03:30:12;;;;;;;10.20;9.00;;;;;;;15.02;66.20;100734.13;108007;1256;72633;-70
2023/09/22 03:32:41;;;;;;;12.60;9.20;;;;;;;14.93;66.51;100735.55;107516;1254;472897;-68
2023/09/22 03:35:11;;;;;;;11.70;9.60;;;;;;;14.84;66.64;100736.59;107795;1257;72738;-68
2023/09/22 03:37:41;;;;;;;11.40;9.10;;;;;;;14.75;66.96;100736.06;107752;1260;60542;-68
2023/09/22 03:40:20;;;;;;;11.00;9.40;;;;;;;14.71;67.32;100736.52;107888;1254;61585;-69
2023/09/22 03:42:48;;;;;;;11.40;9.30;;;;;;;14.68;67.51;100739.29;108006;1254;72566;-68
2023/09/22 03:45:18;;;;;;;12.50;9.80;;;;;;;14.65;67.65;100739.15;108097;1254;72709;-69
2023/09/22 03:47:46;;;;;;;11.70;9.50;;;;;;;14.66;67.75;100742.90;107912;1257;72633;-69
2023/09/22 03:50:14;;;;;;;14.30;8.90;;;;;;;15.01;66.99;100742.58;107922;1257;61683;-69
2023/09/22 03:52:42;;;;;;;13.30;9.10;;;;;;;15.11;66.61;100746.42;107810;1255;60457;-68
2023/09/22 03:55:10;;;;;;;13.50;8.90;;;;;;;15.14;66.42;100744.25;107977;1254;72569;-68
2023/09/22 03:57:38;;;;;;;12.30;9.30;;;;;;;15.13;66.36;100747.76;107905;1254;72873;-68
2023/09/22 04:00:17;;;;;;;10.70;9.50;;;;;;;15.10;66.61;100750.56;107853;1257;71569;-69
2023/09/22 04:02:46;;;;;;;15.40;9.50;;;;;;;15.11;66.61;100753.09;107826;1257;61878;-68
2023/09/22 04:05:15;;;;;;;11.50;9.20;;;;;;;15.15;66.60;100751.06;107962;1254;60038;-68
2023/09/22 04:07:43;;;;;;;9.70;8.70;;;;;;;15.17;66.59;100745.79;108031;1254;73841;-69
2023/09/22 04:10:11;;;;;;;15.40;10.00;;;;;;;15.19;66.56;100746.89;107966;1262;72010;-70
2023/09/22 04:12:39;;;;;;;13.90;9.70;;;;;;;15.21;66.48;100745.09;107992;1254;71351;-69
2023/09/22 04:15:08;;;;;;;14.00;9.40;;;;;;;15.16;66.61;100751.77;107951;1254;60492;-70
2023/09/22 04:17:38;;;;;;;12.30;9.80;;;;;;;14.84;67.35;100753.42;108009;1254;60332;-69
2023/09/22 04:20:08;;;;;;;13.00;8.80;;;;;;;14.90;67.61;100757.67;107985;1254;74114;-70
2023/09/22 04:22:37;;;;;;;14.20;9.40;;;;;;;15.27;66.88;100759.58;107823;1257;72458;-69
2023/09/22 04:25:11;;;;;;;12.40;9.40;;;;;;;15.36;66.52;100757.08;107820;1257;71137;-68
2023/09/22 04:27:46;;;;;;;12.10;9.50;;;;;;;15.39;66.47;100751.77;107989;1254;60440;-69
2023/09/22 04:30:16;;;;;;;12.40;9.70;;;;;;;15.43;66.43;100755.88;108040;1254;61112;-69
2023/09/22 04:32:44;;;;;;;12.50;9.50;;;;;;;15.46;66.49;100754.88;107835;1254;74079;-69
2023/09/22 04:35:13;;;;;;;12.60;9.60;;;;;;;15.49;66.61;100757.16;107996;1255;71660;-70
2023/09/22 04:37:41;;;;;;;11.90;10.00;;;;;;;15.56;66.75;100756.87;108055;1254;71397;-69
2023/09/22 04:40:19;;;;;;;11.80;9.20;;;;;;;15.64;66.82;100763.20;107986;1254;61176;-69
2023/09/22 04:42:48;;;;;;;13.10;9.50;;;;;;;15.73;66.53;100764.69;107838;1254;62510;-68
2023/09/22 04:45:21;;;;;;;10.70;9.30;;;;;;;15.84;66.38;100768.73;107982;1254;74696;-68
2023/09/22 04:47:52;;;;;;;12.90;9.70;;;;;;;15.93;66.16;100768.40;108177;1260;72748;-68
2023/09/22 04:50:21;;;;;;;13.90;10.00;;;;;;;16.00;66.08;100768.43;107970;1260;72707;-70
2023/09/22 04:52:49;;;;;;;12.60;9.70;;;;;;;16.06;65.86;100767.98;107991;1259;60387;-69
2023/09/22 04:55:19;;;;;;;10.90;9.60;;;;;;;16.12;65.82;100769.36;107855;1254;60306;-68
2023/09/22 04:57:48;;;;;;;11.90;9.50;;;;;;;16.20;65.78;100771.25;107975;1257;72902;-68
2023/09/22 05:00:16;;;;;;;11.50;9.40;;;;;;;16.28;65.71;100773.09;107910;1254;71589;-68
2023/09/22 05:02:44;;;;;;;13.90;9.10;;;;;;;16.37;65.62;100773.62;108085;1254;71437;-68
2023/09/22 05:05:12;;;;;;;10.90;8.90;;;;;;;16.46;65.58;100768.92;107998;1257;60546;-69
2023/09/22 05:07:39;;;;;;;10.10;8.50;;;;;;;16.54;65.49;100766.47;107792;1259;59991;-68
2023/09/22 05:10:07;;;;;;;11.70;8.70;;;;;;;16.65;65.44;100768.11;107870;1254;73898;-69
2023/09/22 05:12:35;;;;;;;11.40;8.70;;;;;;;16.74;65.45;100768.98;107896;1258;71463;-68
2023/09/22 05:15:04;;;;;;;11.20;8.60;;;;;;;16.83;65.53;100768.46;107960;1257;71365;-68
2023/09/22 05:17:34;;;;;;;12.90;8.60;;;;;;;16.92;65.48;100765.90;108521;1254;61887;-69
2023/09/22 05:20:05;;;;;;;11.70;8.60;;;;;;;17.02;65.42;100767.19;108444;1254;60450;-68
2023/09/22 05:22:34;;;;;;;13.00;8.90;;;;;;;17.14;65.29;100768.55;107950;1260;72591;-68
2023/09/22 05:25:03;;;;;;;12.10;7.80;;;;;;;17.28;65.25;100761.35;108019;1255;71569;-68
2023/09/22 05:27:32;;;;;;;12.30;8.00;;;;;;;17.43;65.14;100768.88;107942;1254;72670;-68
2023/09/22 05:29:59;;;;;;;12.30;8.00;;;;;;;17.56;64.96;100770.42;107999;1257;61730;-68
2023/09/22 05:32:27;;;;;;;13.90;8.20;;;;;;;17.66;64.82;100771.95;107849;1257;60392;-68
2023/09/22 05:34:55;;;;;;;11.10;8.20;;;;;;;17.78;64.58;100773.95;107957;1255;74698;-68
2023/09/22 05:37:22;;;;;;;14.10;8.20;;;;;;;17.93;64.15;100772.29;107872;1254;72684;-67
2023/09/22 05:39:51;;;;;;;10.00;7.70;;;;;;;18.05;63.72;100771.89;107951;1255;71333;-68
2023/09/22 05:42:19;;;;;;;11.70;8.30;;;;;;;18.15;63.25;100768.96;108007;1255;60185;-69
2023/09/22 05:44:46;;;;;;;9.30;7.10;;;;;;;18.25;62.59;100768.54;108052;1254;60473;-68
2023/09/22 05:47:15;;;;;;;12.40;8.00;;;;;;;18.36;62.07;100770.63;107997;1254;73784;-69
2023/09/22 05:49:42;;;;;;;13.00;7.80;;;;;;;18.46;61.71;100768.89;108000;1254;71809;-68
2023/09/22 05:52:10;;;;;;;15.10;7.60;;;;;;;18.59;61.40;100770.02;108109;1256;71590;-69
2023/09/22 05:54:37;;;;;;;11.20;6.80;;;;;;;18.47;61.24;100770.39;108050;1257;61006;-69
2023/09/22 05:57:06;;;;;;;10.70;7.20;;;;;;;18.64;60.75;100770.16;108110;1259;60311;-69
2023/09/22 05:59:37;;;;;;;11.20;7.20;;;;;;;18.85;59.69;100770.57;107984;1259;73812;-69
2023/09/22 06:02:05;;;;;;;10.90;7.20;;;;;;;18.97;59.16;100774.13;107909;1254;70314;-68
2023/09/22 06:04:33;;;;;;;13.10;7.40;;;;;;;19.07;58.46;100778.20;108167;1259;72702;-69
2023/09/22 06:07:02;;;;;;;10.60;6.70;;;;;;;19.13;57.86;100780.83;107981;1254;60504;-69
2023/09/22 06:09:31;;;;;;;11.90;7.60;;;;;;;19.23;57.58;100782.10;107908;1257;60113;-69
2023/09/22 06:11:59;;;;;;;12.60;7.20;;;;;;;19.34;57.28;100784.79;107917;1255;72679;-69
2023/09/22 06:14:27;;;;;;;10.10;7.50;;;;;;;19.46;56.84;100784.64;107924;1257;71806;-69
2023/09/22 06:16:54;;;;;;;10.20;7.30;;;;;;;19.58;56.39;100789.84;107949;1259;72664;-70
2023/09/22 06:19:22;;;;;;;13.90;7.30;;;;;;;19.70;55.95;100785.94;107805;1257;61612;-69
2023/09/22 06:21:50;;;;;;;9.00;6.60;;;;;;;19.82;55.50;100786.59;107880;1260;60367;-69
2023/09/22 06:24:18;;;;;;;10.10;7.00;;;;;;;19.93;55.53;100784.91;108016;1254;71756;-69
2023/09/22 06:26:46;;;;;;;9.00;7.10;;;;;;;20.06;55.11;100788.08;108006;1254;70643;-68
2023/09/22 06:29:14;;;;;;;11.20;6.70;;;;;;;20.21;54.99;100790.48;107871;1260;75066;-69
2023/09/22 06:31:41;;;;;;;10.40;6.60;;;;;;;20.36;54.76;100794.69;107982;1255;60414;-69
2023/09/22 06:34:09;;;;;;;8.60;6.80;;;;;;;20.49;54.05;100794.65;107991;1255;60342;-68
2023/09/22 06:36:37;;;;;;;12.20;7.00;;;;;;;20.62;53.46;100797.65;107974;1259;72651;-67
2023/09/22 06:39:07;;;;;;;13.30;7.10;;;;;;;20.73;53.10;100793.11;108139;1254;72834;-69
2023/09/22 06:41:36;;;;;;;11.30;7.10;;;;;;;20.86;52.92;100796.66;108080;1257;72709;-68
2023/09/22 06:44:04;;;;;;;10.30;6.80;;;;;;;20.97;52.62;100797.52;107941;1257;60526;-68
2023/09/22 06:46:35;;;;;;;11.50;7.70;;;;;;;21.11;52.18;100800.70;108042;1254;60331;-68
2023/09/22 06:49:05;;;;;;;10.70;7.30;;;;;;;21.25;51.49;100800.13;107957;1254;72632;-69
2023/09/22 06:51:33;;;;;;;9.60;6.60;;;;;;;21.38;50.86;100796.31;108054;1255;71635;-69
2023/09/22 06:54:01;;;;;;;9.90;6.70;;;;;;;21.49;50.48;100789.38;108042;1260;72810;-69
2023/09/22 06:56:28;;;;;;;9.90;6.50;;;;;;;21.64;50.18;100788.88;108073;1260;60293;-69
2023/09/22 06:59:15;;;;;;;11.10;6.50;;;;;;;21.81;49.35;100790.77;108002;1254;60521;-69
2023/09/22 07:01:43;;;;;;;11.00;6.20;;;;;;;21.96;48.46;100792.14;107893;1260;74088;-67
2023/09/22 07:04:12;;;;;;;8.90;5.90;;;;;;;21.94;48.69;100794.16;107876;1261;72719;-68
2023/09/22 07:06:41;;;;;;;12.90;6.00;;;;;;;22.18;48.17;100794.34;107794;1260;72879;-67
2023/09/22 07:09:11;;;;;;;9.70;6.20;;;;;;;22.37;47.36;100789.55;107911;1260;60364;-68
2023/09/22 07:11:42;;;;;;;10.00;5.80;;;;;;;22.52;46.58;100790.74;107980;1254;59605;-68
2023/09/22 07:14:09;;;;;;;10.70;5.40;;;;;;;22.66;46.27;100791.95;107880;1254;74319;-68
2023/09/22 07:16:37;;;;;;;11.50;6.00;;;;;;;22.78;46.04;100790.83;108017;1260;71351;-69
2023/09/22 07:19:05;;;;;;;8.80;5.90;;;;;;;22.93;45.69;100794.66;107969;1257;71456;-69
2023/09/22 07:21:34;;;;;;;7.90;5.60;;;;;;;23.07;45.40;100792.81;107979;1257;60271;-69
2023/09/22 07:24:03;;;;;;;9.00;5.30;;;;;;;23.20;45.18;100793.27;107930;1255;60233;-70
2023/09/22 07:26:30;;;;;;;9.10;5.90;;;;;;;23.32;44.78;100792.39;107917;1260;72566;-69
2023/09/22 07:29:01;;;;;;;9.60;5.80;;;;;;;23.45;44.51;100796.16;108000;1260;72713;-68
2023/09/22 07:31:30;;;;;;;11.20;5.40;;;;;;;23.57;44.58;100792.81;107999;1256;71783;-67
2023/09/22 07:33:59;;;;;;;8.90;5.40;;;;;;;23.71;44.36;100790.82;107839;1260;62121;-68
2023/09/22 07:36:26;;;;;;;7.50;5.00;;;;;;;23.57;44.57;100799.27;107968;1254;60322;-68
2023/09/22 07:38:54;;;;;;;6.70;4.90;;;;;;;23.54;44.65;100800.61;108054;1257;73838;-68
2023/09/22 07:41:22;;;;;;;10.30;5.00;;;;;;;23.66;44.80;100797.72;107987;1255;71763;-68
2023/09/22 07:43:52;;;;;;;9.00;5.10;;;;;;;23.79;44.64;100797.08;107944;1260;72911;-68
2023/09/22 07:46:22;;;;;;;8.70;4.80;;;;;;;23.79;44.57;100795.69;107973;1260;59919;-68
2023/09/22 07:48:53;;;;;;;9.50;4.80;;;;;;;23.88;44.50;100792.45;107946;1254;60313;-68
2023/09/22 07:51:22;;;;;;;10.30;4.70;;;;;;;23.98;44.38;100793.70;107976;1254;72643;-70
2023/09/22 07:53:49;;;;;;;9.40;5.00;;;;;;;24.09;44.03;100793.11;107970;1260;71370;-68
2023/09/22 07:56:18;;;;;;;8.40;4.40;;;;;;;24.16;43.69;100792.30;107947;1255;72696;-68
2023/09/22 07:58:46;;;;;;;9.10;5.00;;;;;;;24.24;43.55;100794.66;107906;1258;60597;-68
2023/09/22 08:01:34;;;;;;;8.40;4.60;;;;;;;24.31;43.39;100794.08;107957;1254;60357;-69
2023/09/22 08:04:01;;;;;;;7.80;4.80;;;;;;;24.34;43.47;100788.89;107817;1257;73992;-68
2023/09/22 08:06:31;;;;;;;7.80;4.30;;;;;;;24.37;43.55;100789.90;108029;1254;71295;-69
2023/09/22 08:08:59;;;;;;;8.00;4.50;;;;;;;24.42;43.85;100788.90;107992;1254;74852;-68
2023/09/22 08:11:28;;;;;;;11.80;4.40;;;;;;;24.50;43.66;100788.52;107926;1261;60123;-68
2023/09/22 08:13:58;;;;;;;6.70;4.30;;;;;;;24.58;43.31;100786.80;107881;1254;60415;-69
2023/09/22 08:16:26;;;;;;;8.00;4.20;;;;;;;24.78;42.95;100787.36;107950;1254;74303;-69
2023/09/22 08:18:54;;;;;;;12.00;4.40;;;;;;;24.81;42.87;100783.23;108027;1256;71879;-69
2023/09/22 08:21:22;;;;;;;7.00;4.10;;;;;;;24.91;42.78;100780.40;107876;1257;72753;-68
2023/09/22 08:23:51;;;;;;;8.50;3.70;;;;;;;25.02;42.41;100779.60;107910;1257;60928;-68
2023/09/22 08:26:23;;;;;;;6.50;3.60;;;;;;;25.13;41.69;100774.38;107901;1254;60303;-68
2023/09/22 08:28:51;;;;;;;8.60;4.30;;;;;;;25.21;41.10;100772.33;108176;1254;73304;-68
2023/09/22 08:31:19;;;;;;;7.40;4.40;;;;;;;25.29;41.17;100771.99;107934;1257;71890;-68
2023/09/22 08:33:47;;;;;;;7.00;4.50;;;;;;;25.37;40.96;100771.55;107903;1257;72862;-68
2023/09/22 08:36:15;;;;;;;5.80;3.80;;;;;;;25.44;41.09;100773.00;107976;1260;59951;-69
2023/09/22 08:38:45;;;;;;;9.80;4.00;;;;;;;25.51;40.35;100767.61;107935;1258;59682;-68
2023/09/22 08:41:13;;;;;;;8.00;3.80;;;;;;;25.57;39.97;100768.61;107815;1254;72677;-68
2023/09/22 08:43:41;;;;;;;5.80;3.80;;;;;;;25.62;39.78;100767.09;107979;1254;71519;-68
2023/09/22 08:46:08;;;;;;;6.40;3.90;;;;;;;25.66;39.60;100763.52;107884;1256;71362;-68
2023/09/22 08:48:36;;;;;;;7.30;3.80;;;;;;;25.70;39.64;100757.70;107778;1257;60222;-68
2023/09/22 08:51:04;;;;;;;6.50;3.70;;;;;;;25.78;39.50;100760.76;107919;1254;60291;-69
2023/09/22 08:53:32;;;;;;;7.40;3.70;;;;;;;25.83;39.22;100756.76;107790;1254;73977;-69
2023/09/22 08:56:01;;;;;;;7.10;3.60;;;;;;;25.89;39.03;100753.30;107931;1254;72712;-69
2023/09/22 08:58:29;;;;;;;5.10;3.60;;;;;;;25.95;38.41;100756.10;107893;1254;72651;-68
2023/09/22 09:00:56;;;;;;;6.60;3.40;;;;;;;26.01;38.50;100752.27;107878;1256;60312;-68
2023/09/22 09:03:24;;;;;;;5.30;3.40;;;;;;;26.10;38.45;100753.24;107997;1254;60561;-68
2023/09/22 09:05:53;;;;;;;6.00;3.50;;;;;;;26.19;38.51;100750.46;108197;1257;74765;-69
2023/09/22 09:08:23;;;;;;;5.40;3.40;;;;;;;26.53;37.99;100749.91;107808;1257;73468;-68
2023/09/22 09:10:51;;;;;;;6.40;3.60;;;;;;;26.83;37.44;100751.94;107790;1260;72712;-68
2023/09/22 09:13:20;;;;;;;6.20;3.60;;;;;;;26.96;38.08;100749.98;107904;1255;60414;-69
2023/09/22 09:15:49;;;;;;;5.70;3.80;;;;;;;27.07;37.90;100749.80;108081;1260;60326;-69
2023/09/22 09:18:24;;;;;;;8.20;3.90;;;;;;;27.24;37.18;100749.98;108070;1254;65010;-68
2023/09/22 09:21:09;;;;;;;8.40;3.80;;;;;;;27.34;36.61;100746.67;108076;1257;62752;-67
2023/09/22 09:23:38;;;;;;;7.60;3.70;;;;;;;27.38;35.87;100743.77;108015;1254;62725;-69
2023/09/22 09:26:06;;;;;;;7.10;3.80;;;;;;;27.46;35.36;100745.80;108075;1254;60447;-68
2023/09/22 09:28:38;;;;;;;9.30;3.80;;;;;;;27.38;35.81;100745.96;108062;1254;60524;-69
2023/09/22 09:31:06;;;;;;;6.90;3.90;;;;;;;27.07;36.25;100744.47;108009;1254;63921;-69
2023/09/22 09:33:34;;;;;;;7.80;4.10;;;;;;;27.04;36.76;100741.20;107871;1254;72763;-69
2023/09/22 09:36:13;;;;;;;6.20;4.00;;;;;;;27.10;36.53;100741.46;108028;1254;74889;-69
2023/09/22 09:38:42;;;;;;;5.90;3.30;;;;;;;27.27;36.77;100743.34;107946;1254;60430;-70
2023/09/22 09:41:10;;;;;;;7.90;3.80;;;;;;;27.51;36.33;100743.98;107977;1254;60348;-68
2023/09/22 09:43:37;;;;;;;6.20;3.90;;;;;;;27.51;35.81;100742.27;107954;1254;73820;-69
2023/09/22 09:46:06;;;;;;;8.30;4.00;;;;;;;27.56;35.87;100747.35;108026;1257;63198;-68
2023/09/22 09:48:37;;;;;;;6.50;3.80;;;;;;;27.58;35.77;100747.33;107647;1254;63921;-67
2023/09/22 09:51:05;;;;;;;7.30;4.10;;;;;;;27.73;35.76;100745.29;107981;1258;60298;-67
2023/09/22 09:53:45;;;;;;;8.50;4.30;;;;;;;27.96;35.37;100743.91;107823;1254;60271;-67
2023/09/22 09:56:15;;;;;;;6.30;4.00;;;;;;;28.03;35.37;100747.15;107897;1257;63912;-68
2023/09/22 09:58:45;;;;;;;5.50;3.40;;;;;;;28.05;35.27;100744.02;107851;1254;63932;-67
2023/09/22 10:01:13;;;;;;;6.40;3.80;;;;;;;27.72;35.86;100742.91;107886;1257;62531;-68
2023/09/22 10:03:42;;;;;;;6.80;4.10;;;;;;;27.60;36.25;100746.02;107801;1257;60345;-67
2023/09/22 10:06:12;;;;;;;8.30;3.70;;;;;;;27.62;36.03;100742.83;107917;1254;60340;-68
2023/09/22 10:08:40;;;;;;;5.00;3.50;;;;;;;27.68;36.28;100742.05;108069;1254;65277;-67
2023/09/22 10:11:11;;;;;;;11.40;3.80;;;;;;;27.76;36.00;100745.40;107952;1254;71906;-68
2023/09/22 10:13:39;;;;;;;7.20;3.60;;;;;;;27.86;35.58;100743.77;108015;1254;62609;-68
2023/09/22 10:16:08;;;;;;;6.60;3.40;;;;;;;27.96;35.69;100738.65;108056;1254;60309;-68
2023/09/22 10:18:50;;;;;;;7.90;4.10;;;;;;;28.06;35.22;100739.58;107952;1260;60345;-68
2023/09/22 10:21:33;;;;;;;7.60;4.00;;;;;;;28.16;35.20;100740.66;108007;1254;63941;-68
2023/09/22 10:24:14;;;;;;;6.30;3.50;;;;;;;28.24;34.73;100740.75;108017;1254;64335;-68
2023/09/22 10:26:53;;;;;;;7.60;3.60;;;;;;;28.27;34.35;100739.47;107818;1257;62465;-68
2023/09/22 10:29:36;;;;;;;6.20;3.60;;;;;;;28.30;34.51;100741.54;107955;1257;60444;-68
2023/09/22 10:34:46;;;;;;;8.70;3.70;;;;;;;28.36;34.23;100734.24;108245;1254;64998;-69
2023/09/22 10:37:17;;;;;;;6.90;3.90;;;;;;;28.40;34.17;100735.23;108043;1254;64023;-69
2023/09/22 10:40:12;;;;;;;7.10;3.50;;;;;;;28.46;33.95;100727.40;108096;1254;63931;-68
2023/09/22 10:42:42;;;;;;;7.80;3.50;;;;;;;28.50;33.76;100725.80;107982;1254;60385;-69
2023/09/22 10:45:10;;;;;;;6.50;3.40;;;;;;;28.48;33.82;100726.73;107991;1256;60323;-68
2023/09/22 10:47:45;;;;;;;7.00;3.70;;;;;;;28.34;34.15;100730.45;107862;1257;73813;-70
2023/09/22 10:50:24;;;;;;;8.90;3.60;;;;;;;28.19;34.19;100728.61;108033;1254;64228;-69
2023/09/22 10:52:54;;;;;;;10.60;3.50;;;;;;;28.07;34.28;100727.13;108095;1254;62591;-69
2023/09/22 10:55:36;;;;;;;8.60;3.60;;;;;;;28.06;34.84;100728.27;107950;1254;60207;-68
2023/09/22 10:58:06;;;;;;;6.70;3.40;;;;;;;28.15;34.96;100728.02;107893;1254;60228;-68
2023/09/22 11:00:44;;;;;;;8.10;3.30;;;;;;;28.25;34.78;100728.05;107840;1254;65196;-70
2023/09/22 11:03:14;;;;;;;8.30;3.70;;;;;;;28.34;34.65;100726.42;107835;1254;64389;-69
2023/09/22 11:05:42;;;;;;;5.80;3.80;;;;;;;28.38;34.76;100727.14;107970;1254;62526;-68
2023/09/22 11:08:14;;;;;;;6.50;3.60;;;;;;;28.72;34.04;100724.70;108032;1254;60411;-68
2023/09/22 11:10:46;;;;;;;7.90;3.50;;;;;;;29.08;33.06;100720.30;107915;1254;59181;-69
2023/09/22 11:13:14;;;;;;;7.70;3.60;;;;;;;29.11;32.60;100718.68;108008;1254;64072;-70
2023/09/22 11:15:50;;;;;;;7.70;3.40;;;;;;;28.74;33.32;100718.83;107974;1254;64091;-68
2023/09/22 11:18:28;;;;;;;6.10;3.60;;;;;;;28.70;33.77;100716.20;108234;1254;63994;-68
2023/09/22 11:21:00;;;;;;;8.90;3.50;;;;;;;28.67;33.75;100717.52;108020;1256;60539;-68
2023/09/22 11:23:28;;;;;;;6.80;3.50;;;;;;;28.69;33.51;100714.79;107816;1255;60360;-68
2023/09/22 11:26:00;;;;;;;7.10;4.00;;;;;;;28.71;33.70;100717.23;108045;1257;65154;-68